DECCN EDDN-EDDN

Flight info

Callsign DECCN
Flight time N/A
Altitude
Route
Aircraft PA28

Departure

Time 2026-04-29 15:01
Airport Nuremberg Airport (EDDN)

Arrival

Time N/A
Airport Nuremberg Airport (EDDN)
Time Latitude Longitude Altitude Speed Heading
2026-04-29 14:49 49.49543 11.07140 1023 ft 0 kts 92°
2026-04-29 14:52 49.49539 11.07165 1024 ft 4 kts 99°
2026-04-29 14:52 49.49547 11.07201 1025 ft 3 kts 13°
2026-04-29 14:52 49.49571 11.07206 1026 ft 5 kts
2026-04-29 14:52 49.49615 11.07214 1027 ft 7 kts 12°
2026-04-29 14:53 49.49673 11.07229 1029 ft 10 kts
2026-04-29 14:53 49.49681 11.07231 1029 ft 0 kts
2026-04-29 14:54 49.49699 11.07236 1030 ft 5 kts 19°
2026-04-29 14:54 49.49727 11.07277 1031 ft 6 kts 77°
2026-04-29 14:54 49.49723 11.07355 1032 ft 8 kts 97°
2026-04-29 14:54 49.49714 11.07444 1034 ft 8 kts 100°
2026-04-29 14:55 49.49705 11.07529 1035 ft 8 kts 99°
2026-04-29 14:55 49.49697 11.07614 1037 ft 7 kts 98°
2026-04-29 14:55 49.49696 11.07630 1037 ft 0 kts 98°
2026-04-29 14:56 49.49694 11.07646 1037 ft 3 kts 102°
2026-04-29 14:56 49.49689 11.07700 1037 ft 7 kts 97°
2026-04-29 14:56 49.49717 11.07735 1038 ft 9 kts 333°
2026-04-29 14:56 49.49779 11.07686 1039 ft 0 kts 330°
2026-04-29 14:59 49.49788 11.07679 1039 ft 6 kts 332°
2026-04-29 14:59 49.49854 11.07638 1039 ft 13 kts
2026-04-29 15:00 49.49876 11.07743 1041 ft 15 kts 99°
2026-04-29 15:00 49.49836 11.08137 1082 ft 53 kts 95°
2026-04-29 15:00 49.49938 11.08698 1287 ft 61 kts 60°
2026-04-29 15:00 49.50307 11.09148 1499 ft 73 kts 46°
2026-04-29 15:01 49.50751 11.09529 1726 ft 74 kts 36°
2026-04-29 15:01 49.51256 11.09746 1981 ft 84 kts
2026-04-29 15:01 49.51633 11.08968 2032 ft 110 kts 278°
2026-04-29 15:01 49.51668 11.07763 2036 ft 116 kts 275°
2026-04-29 15:02 49.51670 11.06500 1943 ft 114 kts 274°
2026-04-29 15:02 49.51759 11.05342 1977 ft 106 kts 286°
2026-04-29 15:02 49.51958 11.04258 1989 ft 105 kts 295°
2026-04-29 15:02 49.52168 11.03197 2044 ft 105 kts 293°
2026-04-29 15:03 49.52366 11.02106 2065 ft 106 kts 293°
2026-04-29 15:03 49.52550 11.01009 2066 ft 105 kts 292°
2026-04-29 15:03 49.52675 10.99901 2060 ft 107 kts 278°
2026-04-29 15:03 49.52828 10.98824 2025 ft 100 kts 311°
2026-04-29 15:04 49.53348 10.98295 1967 ft 84 kts
2026-04-29 15:04 49.53808 10.98619 1958 ft 72 kts 57°
2026-04-29 15:04 49.53810 10.99392 2013 ft 81 kts 107°
2026-04-29 15:04 49.53292 10.99869 2080 ft 101 kts 167°
2026-04-29 15:05 49.52583 10.99500 2084 ft 106 kts 188°
2026-04-29 15:05 49.51871 10.99375 2089 ft 100 kts 172°
2026-04-29 15:05 49.51172 10.99357 2029 ft 100 kts 162°
2026-04-29 15:05 49.50719 10.99971 1970 ft 86 kts 111°
2026-04-29 15:06 49.50519 11.00794 1916 ft 82 kts 98°
2026-04-29 15:06 49.50431 11.01659 1791 ft 85 kts 92°
2026-04-29 15:06 49.50366 11.02656 1624 ft 100 kts 95°
2026-04-29 15:06 49.50266 11.03753 1439 ft 108 kts 95°
2026-04-29 15:07 49.50157 11.04920 1278 ft 111 kts 96°
2026-04-29 15:07 49.50045 11.06107 1132 ft 110 kts 97°
2026-04-29 15:07 49.49933 11.07235 1093 ft 103 kts 97°
2026-04-29 15:07 49.49825 11.08156 1421 ft 81 kts 98°
2026-04-29 15:08 49.49818 11.09010 1680 ft 83 kts 71°
2026-04-29 15:08 49.50357 11.09513 1860 ft 95 kts 25°
2026-04-29 15:08 49.51015 11.09819 1886 ft 102 kts 25°
2026-04-29 15:08 49.51689 11.10026 2004 ft 102 kts 346°
2026-04-29 15:09 49.52066 11.08965 1902 ft 132 kts 277°
2026-04-29 15:09 49.52471 11.07836 2022 ft 115 kts 321°
2026-04-29 15:09 49.53026 11.06978 2209 ft 114 kts 324°
2026-04-29 15:09 49.53589 11.06132 2448 ft 99 kts 324°
2026-04-29 15:10 49.54029 11.05407 2691 ft 94 kts 322°
2026-04-29 15:10 49.54457 11.04617 2820 ft 101 kts 319°
2026-04-29 15:10 49.54911 11.03717 2912 ft 110 kts 316°
2026-04-29 15:10 49.55375 11.02721 2897 ft 118 kts 313°
2026-04-29 15:11 49.55829 11.01682 2948 ft 115 kts 310°
2026-04-29 15:11 49.56273 11.00618 2882 ft 119 kts 308°
2026-04-29 15:11 49.56696 10.99528 2938 ft 118 kts 305°
2026-04-29 15:11 49.57088 10.98392 2955 ft 123 kts 302°
2026-04-29 15:12 49.57461 10.97169 2843 ft 127 kts 302°
2026-04-29 15:12 49.57721 10.96386 2887 ft 122 kts 306°